Rhodhiss, North Carolina
Current Conditions -  °F | °C
As of 2:53 PM on Friday 31 Oct 2014 (Local Time) from KHKY Reporting Station
Few Clouds Few Clouds  
Wind Chill: 14°   Ceiling: Unl
Heat Index: 14°   Visibility: 10mi
Dew Point:   Wind: 3mph
Humidity: 57%   Direction: NA
Pressure: 29.83"   Gusts: NA
Location:  35.77°N, 81.43°W
Report Text: KHKY 311853Z VRB03KT 10SM FEW032 14/06 A2983 RMK AO2 SLP092 T01390056
Loading
Personal Weather Stations






























Interactive Weather Map
Tropical Storm Tracking
New forecast layout! Learn more

10-Day Weather Forecast

Advertisements
Track Severe Weather on mobile